createdAt,value
2018-08-24T00:00:11.528Z,18.62
2018-08-24T00:02:40.480Z,18.63
2018-08-24T00:05:09.369Z,18.61
2018-08-24T00:07:38.270Z,18.61
2018-08-24T00:10:07.260Z,18.54
2018-08-24T00:12:36.197Z,18.56
2018-08-24T00:15:05.318Z,18.72
2018-08-24T00:17:34.264Z,18.34
2018-08-24T00:20:03.216Z,18.50
2018-08-24T00:22:32.101Z,18.49
2018-08-24T00:25:01.045Z,18.53
2018-08-24T00:27:29.960Z,18.64
2018-08-24T00:29:58.870Z,18.58
2018-08-24T00:32:27.776Z,18.51
2018-08-24T00:34:56.738Z,18.44
2018-08-24T00:37:25.708Z,18.59
2018-08-24T00:39:54.616Z,18.51
2018-08-24T00:42:23.548Z,18.58
2018-08-24T00:44:52.519Z,18.66
2018-08-24T00:47:21.418Z,18.56
2018-08-24T00:49:50.360Z,18.57
2018-08-24T00:52:19.863Z,18.67
2018-08-24T00:54:48.823Z,18.64
2018-08-24T00:57:17.735Z,18.60
2018-08-24T00:59:46.633Z,18.51
2018-08-24T01:02:15.607Z,18.64
2018-08-24T01:04:44.527Z,18.68
2018-08-24T01:07:14.409Z,18.78
2018-08-24T01:09:43.717Z,18.64
2018-08-24T01:12:14.758Z,18.62
2018-08-24T01:14:48.772Z,18.58
2018-08-24T01:17:22.884Z,18.67
2018-08-24T01:19:51.839Z,18.56
2018-08-24T01:22:20.783Z,18.68
2018-08-24T01:24:49.676Z,18.56
2018-08-24T01:27:18.653Z,18.47
2018-08-24T01:29:47.572Z,18.52
2018-08-24T01:32:16.469Z,18.53
2018-08-24T01:34:45.419Z,18.33
2018-08-24T01:37:14.357Z,18.43
2018-08-24T01:39:43.271Z,18.47
2018-08-24T01:42:12.183Z,18.61
2018-08-24T01:44:41.140Z,18.49
2018-08-24T01:47:10.098Z,18.22
2018-08-24T01:49:39.032Z,18.33
2018-08-24T01:52:08.025Z,18.59
2018-08-24T01:54:36.928Z,18.58
2018-08-24T01:57:21.953Z,18.63
2018-08-24T01:59:50.900Z,18.74
2018-08-24T02:02:19.882Z,18.75
2018-08-24T02:04:48.794Z,18.73
2018-08-24T02:07:17.783Z,18.73
2018-08-24T02:09:46.760Z,18.72
2018-08-24T02:12:20.919Z,18.65
2018-08-24T02:14:49.892Z,18.68
2018-08-24T02:17:24.026Z,18.59
2018-08-24T02:19:58.253Z,18.47
2018-08-24T02:22:27.150Z,18.58
2018-08-24T02:25:01.600Z,18.25
2018-08-24T02:27:30.546Z,18.35
2018-08-24T02:29:59.458Z,18.36
2018-08-24T02:32:28.327Z,18.25
2018-08-24T02:34:59.692Z,18.25
2018-08-24T02:37:29.686Z,18.28
2018-08-24T02:39:58.564Z,18.35
2018-08-24T02:42:28.584Z,18.22
2018-08-24T02:44:57.520Z,18.24
2018-08-24T02:47:26.374Z,18.28
2018-08-24T02:49:55.640Z,18.16
2018-08-24T02:52:24.515Z,18.19
2018-08-24T02:54:53.403Z,18.26
2018-08-24T02:57:22.412Z,18.14
2018-08-24T02:59:51.308Z,18.14
2018-08-24T03:02:20.257Z,18.12
2018-08-24T03:04:49.147Z,17.99
2018-08-24T03:07:18.032Z,18.00
2018-08-24T03:09:46.942Z,18.01
2018-08-24T03:12:15.834Z,18.08
2018-08-24T03:14:44.746Z,18.06
2018-08-24T03:17:18.864Z,17.98
2018-08-24T03:19:47.924Z,18.08
2018-08-24T03:22:22.866Z,18.07
2018-08-24T03:24:51.770Z,17.86
2018-08-24T03:27:20.746Z,18.02
2018-08-24T03:29:49.699Z,18.02
2018-08-24T03:32:24.899Z,17.91
2018-08-24T03:34:53.777Z,17.91
2018-08-24T03:37:22.688Z,17.89
2018-08-24T03:39:51.619Z,17.71
2018-08-24T03:42:20.555Z,17.78
2018-08-24T03:44:49.585Z,17.71
2018-08-24T03:47:18.512Z,17.77
2018-08-24T03:49:47.411Z,17.70
2018-08-24T03:52:16.298Z,17.71
2018-08-24T03:54:50.941Z,17.76
2018-08-24T03:57:25.483Z,17.77
2018-08-24T03:59:54.367Z,17.76
2018-08-24T04:02:23.262Z,17.86
2018-08-24T04:04:52.326Z,17.89
2018-08-24T04:07:22.256Z,17.96
2018-08-24T04:09:51.488Z,17.90
2018-08-24T04:12:20.794Z,17.98
2018-08-24T04:14:50.037Z,17.89
2018-08-24T04:17:24.681Z,17.94
2018-08-24T04:19:54.144Z,17.77
2018-08-24T04:22:23.349Z,17.90
2018-08-24T04:24:52.680Z,17.88
2018-08-24T04:27:22.029Z,17.88
2018-08-24T04:29:51.293Z,17.97
2018-08-24T04:32:21.585Z,17.79
2018-08-24T04:34:51.153Z,17.82
2018-08-24T04:37:21.249Z,17.75
2018-08-24T04:39:50.528Z,17.70
2018-08-24T04:42:19.820Z,17.78
2018-08-24T04:44:49.022Z,17.79
2018-08-24T04:47:18.357Z,17.77
2018-08-24T04:49:47.755Z,17.77
2018-08-24T04:52:17.056Z,17.84
2018-08-24T04:54:46.436Z,17.77
2018-08-24T04:57:15.620Z,17.71
2018-08-24T04:59:44.934Z,17.63
2018-08-24T05:02:14.078Z,17.73
2018-08-24T05:04:43.354Z,17.74
2018-08-24T05:07:12.607Z,17.70
2018-08-24T05:09:52.193Z,17.59
2018-08-24T05:12:21.404Z,17.48
2018-08-24T05:14:50.811Z,17.58
2018-08-24T05:17:20.881Z,17.58
2018-08-24T05:19:53.810Z,17.58
2018-08-24T05:22:23.189Z,17.66
2018-08-24T05:24:52.598Z,17.69
2018-08-24T05:27:21.718Z,17.66
2018-08-24T05:29:51.138Z,17.63
2018-08-24T05:32:21.486Z,17.76
2018-08-24T05:34:50.832Z,17.66
2018-08-24T05:37:20.287Z,17.45
2018-08-24T05:39:49.596Z,17.60
2018-08-24T05:42:20.154Z,17.53
2018-08-24T05:44:49.425Z,17.43
2018-08-24T05:47:19.271Z,17.54
2018-08-24T05:49:48.516Z,17.53
2018-08-24T05:52:17.932Z,17.51
2018-08-24T05:54:47.287Z,17.56
2018-08-24T05:57:16.751Z,17.64
2018-08-24T05:59:46.021Z,17.76
2018-08-24T06:02:15.354Z,17.54
2018-08-24T06:04:44.645Z,17.62
2018-08-24T06:07:13.944Z,17.67
2018-08-24T06:09:43.237Z,17.75
2018-08-24T06:12:12.598Z,17.72
2018-08-24T06:14:41.955Z,17.63
2018-08-24T06:17:16.360Z,17.67
2018-08-24T06:19:45.703Z,17.72
2018-08-24T06:22:14.925Z,17.64
2018-08-24T06:24:44.155Z,17.76
2018-08-24T06:27:13.395Z,17.86
2018-08-24T06:29:42.671Z,17.65
2018-08-24T06:32:11.999Z,17.73
2018-08-24T06:34:44.885Z,17.66
2018-08-24T06:37:15.239Z,17.86
2018-08-24T06:39:44.444Z,17.87
2018-08-24T06:42:13.662Z,17.86
2018-08-24T06:44:42.995Z,17.97
2018-08-24T06:47:12.274Z,18.01
2018-08-24T06:49:41.562Z,18.06
2018-08-24T06:52:10.788Z,18.05
2018-08-24T06:54:40.240Z,17.97
2018-08-24T06:57:09.570Z,18.08
2018-08-24T06:59:38.861Z,18.19
2018-08-24T07:02:08.272Z,18.18
2018-08-24T07:04:37.546Z,18.32
2018-08-24T07:07:06.804Z,18.49
2018-08-24T07:09:38.365Z,18.66
2018-08-24T07:12:11.079Z,19.01
2018-08-24T07:14:40.877Z,19.03
2018-08-24T07:17:11.092Z,19.51
2018-08-24T07:19:40.389Z,19.88
2018-08-24T07:22:15.352Z,20.14
2018-08-24T07:24:44.735Z,20.19
2018-08-24T07:27:14.217Z,20.53
2018-08-24T07:29:43.564Z,20.76
2018-08-24T07:32:12.738Z,20.25
2018-08-24T07:34:42.047Z,20.34
2018-08-24T07:37:11.349Z,20.28
2018-08-24T07:39:46.071Z,19.95
2018-08-24T07:42:20.813Z,20.15
2018-08-24T07:44:54.061Z,20.22
2018-08-24T07:47:24.127Z,20.02
2018-08-24T07:49:53.798Z,20.40
2018-08-24T07:52:22.998Z,20.56
2018-08-24T07:54:52.307Z,20.79
2018-08-24T07:57:21.643Z,20.68
2018-08-24T07:59:50.977Z,20.18
2018-08-24T08:02:24.576Z,20.18
2018-08-24T08:04:53.932Z,20.19
2018-08-24T08:07:23.229Z,20.13
2018-08-24T08:09:52.630Z,19.94
2018-08-24T08:12:21.849Z,19.77
2018-08-24T08:14:56.472Z,19.93
2018-08-24T08:17:25.820Z,20.12
2018-08-24T08:19:54.949Z,20.25
2018-08-24T08:22:24.297Z,20.23
2018-08-24T08:24:53.560Z,19.96
2018-08-24T08:27:22.992Z,19.93
2018-08-24T08:29:57.586Z,19.73
2018-08-24T08:32:27.196Z,20.07
2018-08-24T08:34:56.430Z,20.09
2018-08-24T08:37:25.728Z,20.18
2018-08-24T08:40:00.088Z,19.94
2018-08-24T08:42:29.625Z,19.78
2018-08-24T08:44:59.272Z,19.58
2018-08-24T08:47:28.539Z,19.83
2018-08-24T08:49:57.690Z,20.05
2018-08-24T08:52:26.944Z,20.20
2018-08-24T08:54:57.438Z,20.29
2018-08-24T08:57:26.820Z,20.13
2018-08-24T08:59:56.072Z,19.88
2018-08-24T09:02:25.246Z,19.94
2018-08-24T09:04:54.502Z,19.82
2018-08-24T09:07:23.974Z,19.78
2018-08-24T09:09:53.177Z,19.62
2018-08-24T09:12:22.394Z,19.52
2018-08-24T09:14:51.675Z,19.61
2018-08-24T09:17:26.248Z,19.52
2018-08-24T09:20:00.555Z,19.37
2018-08-24T09:22:34.996Z,19.21
2018-08-24T09:25:09.514Z,18.98
2018-08-24T09:28:41.494Z,18.66
2018-08-24T09:31:14.713Z,18.74
2018-08-24T09:33:43.809Z,18.81
2018-08-24T09:36:19.569Z,18.87
2018-08-24T09:38:49.764Z,18.92
2018-08-24T09:41:19.228Z,18.90
2018-08-24T09:43:53.799Z,19.04
2018-08-24T09:47:25.818Z,19.24
2018-08-24T09:49:55.039Z,19.48
2018-08-24T09:52:27.034Z,19.54
2018-08-24T09:54:56.955Z,19.72
2018-08-24T09:57:25.941Z,19.76
2018-08-24T09:59:54.881Z,19.90
2018-08-24T10:02:25.990Z,19.89
2018-08-24T10:05:00.162Z,20.00
2018-08-24T10:07:38.275Z,20.04
2018-08-24T10:10:07.547Z,19.60
2018-08-24T10:12:37.599Z,19.74
2018-08-24T10:15:08.186Z,19.78
2018-08-24T10:17:37.177Z,19.89
2018-08-24T10:20:06.841Z,19.87
2018-08-24T10:22:37.846Z,19.87
2018-08-24T10:25:12.461Z,19.80
2018-08-24T10:27:46.811Z,19.83
2018-08-24T10:30:15.762Z,19.60
2018-08-24T10:32:44.691Z,19.45
2018-08-24T10:35:13.633Z,19.54
2018-08-24T10:37:42.610Z,19.40
2018-08-24T10:40:11.524Z,19.52
2018-08-24T10:42:41.590Z,19.69
2018-08-24T10:45:10.576Z,19.59
2018-08-24T10:47:39.480Z,19.57
2018-08-24T10:50:08.333Z,19.59
2018-08-24T10:52:37.407Z,19.44
2018-08-24T10:55:09.475Z,19.25
2018-08-24T10:57:38.413Z,19.21
2018-08-24T11:00:07.331Z,19.24
2018-08-24T11:02:36.272Z,19.21
2018-08-24T11:05:05.193Z,19.30
2018-08-24T11:07:35.978Z,19.51
2018-08-24T11:10:05.170Z,19.48
2018-08-24T11:12:34.224Z,19.38
2018-08-24T11:15:04.592Z,19.26
2018-08-24T11:18:35.943Z,19.12
2018-08-24T11:21:04.888Z,19.32
2018-08-24T11:23:33.920Z,19.43
2018-08-24T11:26:03.006Z,19.30
2018-08-24T11:28:31.919Z,19.22
2018-08-24T11:31:00.958Z,19.01
2018-08-24T11:33:29.912Z,19.18
2018-08-24T11:35:58.900Z,19.18
2018-08-24T11:38:27.775Z,19.33
2018-08-24T11:40:56.677Z,19.42
2018-08-24T11:43:25.573Z,19.33
2018-08-24T11:45:59.946Z,19.13
2018-08-24T11:48:29.149Z,19.27
2018-08-24T11:50:59.209Z,19.23
2018-08-24T11:53:28.213Z,19.33
2018-08-24T11:55:57.159Z,19.47
2018-08-24T11:58:26.071Z,19.48
2018-08-24T12:00:54.983Z,19.60
2018-08-24T12:03:23.900Z,19.66
2018-08-24T12:05:53.550Z,19.65
2018-08-24T12:08:22.566Z,19.48
2018-08-24T12:10:51.473Z,19.60
2018-08-24T12:13:20.368Z,19.61
2018-08-24T12:15:49.291Z,19.66
2018-08-24T12:18:18.349Z,19.60
2018-08-24T12:20:47.241Z,19.48
2018-08-24T12:23:16.290Z,19.41
2018-08-24T12:25:45.195Z,19.29
2018-08-24T12:28:14.173Z,19.37
2018-08-24T12:30:43.368Z,19.34
2018-08-24T12:33:12.297Z,19.41
2018-08-24T12:35:41.191Z,19.56
2018-08-24T12:38:10.206Z,19.62
2018-08-24T12:40:39.486Z,19.57
2018-08-24T12:43:08.465Z,19.52
2018-08-24T12:45:37.384Z,19.61
2018-08-24T12:48:06.331Z,19.52
2018-08-24T12:50:35.243Z,19.56
2018-08-24T12:53:04.178Z,19.30
2018-08-24T12:55:33.100Z,19.39
2018-08-24T12:58:01.992Z,19.20
2018-08-24T13:00:31.216Z,19.31
2018-08-24T13:03:00.193Z,19.30
2018-08-24T13:06:32.200Z,19.34
2018-08-24T13:09:01.156Z,19.34
2018-08-24T13:11:35.778Z,19.40
2018-08-24T13:14:05.088Z,19.39
2018-08-24T13:16:34.322Z,19.39
2018-08-24T13:19:03.316Z,19.48
2018-08-24T13:21:32.424Z,19.37
2018-08-24T13:24:01.611Z,19.39
2018-08-24T13:26:30.786Z,19.30
2018-08-24T13:28:59.683Z,19.34
2018-08-24T13:31:28.655Z,19.43
2018-08-24T13:33:57.890Z,19.54
2018-08-24T13:36:27.145Z,19.53
2018-08-24T13:38:56.325Z,19.56
2018-08-24T13:41:25.420Z,19.53
2018-08-24T13:43:54.593Z,19.43
2018-08-24T13:46:24.057Z,19.62
2018-08-24T13:48:54.013Z,19.67
2018-08-24T13:51:22.940Z,19.76
2018-08-24T13:53:52.129Z,19.70
2018-08-24T13:56:21.110Z,19.52
2018-08-24T13:58:50.086Z,19.65
2018-08-24T14:01:19.014Z,19.58
2018-08-24T14:03:47.953Z,19.31
2018-08-24T14:06:17.018Z,19.39
2018-08-24T14:08:46.183Z,19.40
2018-08-24T14:11:15.100Z,19.34
2018-08-24T14:13:44.310Z,19.30
2018-08-24T14:16:13.488Z,19.53
2018-08-24T14:18:42.644Z,19.41
2018-08-24T14:21:11.797Z,19.49
2018-08-24T14:23:40.976Z,19.44
2018-08-24T14:26:09.936Z,19.36
2018-08-24T14:28:38.808Z,19.36
2018-08-24T14:31:08.337Z,19.51
2018-08-24T14:33:37.529Z,19.48
2018-08-24T14:36:06.972Z,19.55
2018-08-24T14:38:37.365Z,19.55
2018-08-24T14:41:06.323Z,19.51
2018-08-24T14:43:35.326Z,19.21
2018-08-24T14:46:04.318Z,19.16
2018-08-24T14:48:33.583Z,19.01
2018-08-24T14:51:02.847Z,19.18
2018-08-24T14:53:33.201Z,19.09
2018-08-24T14:56:02.153Z,19.20
2018-08-24T14:58:31.147Z,19.29
2018-08-24T15:01:00.349Z,19.31
2018-08-24T15:03:29.611Z,19.48
2018-08-24T15:05:59.760Z,19.35
2018-08-24T15:08:28.852Z,19.22
2018-08-24T15:10:58.999Z,19.37
2018-08-24T15:13:28.219Z,19.05
2018-08-24T15:15:57.168Z,19.05
2018-08-24T15:18:26.871Z,19.15
2018-08-24T15:20:56.730Z,19.04
2018-08-24T15:23:25.640Z,19.25
2018-08-24T15:25:54.915Z,19.35
2018-08-24T15:28:23.873Z,19.28
2018-08-24T15:30:53.265Z,19.28
2018-08-24T15:33:22.199Z,19.47
2018-08-24T15:35:51.385Z,19.41
2018-08-24T15:38:20.448Z,19.21
2018-08-24T15:40:49.609Z,19.08
2018-08-24T15:43:18.764Z,19.11
2018-08-24T15:45:47.839Z,19.10
2018-08-24T15:48:16.793Z,19.09
2018-08-24T15:50:45.874Z,19.24
2018-08-24T15:53:14.957Z,19.13
2018-08-24T15:55:43.885Z,19.18
2018-08-24T15:58:13.092Z,19.16
2018-08-24T16:00:42.311Z,19.12
2018-08-24T16:03:11.551Z,19.13
2018-08-24T16:05:40.494Z,19.27
2018-08-24T16:08:09.543Z,19.10
2018-08-24T16:10:38.830Z,19.13
2018-08-24T16:13:07.752Z,19.01
2018-08-24T16:15:36.889Z,19.25
2018-08-24T16:18:11.051Z,19.13
2018-08-24T16:20:40.067Z,18.98
2018-08-24T16:23:10.239Z,19.10
2018-08-24T16:25:39.333Z,19.29
2018-08-24T16:28:10.271Z,19.33
2018-08-24T16:30:39.362Z,19.25
2018-08-24T16:33:08.387Z,19.30
2018-08-24T16:35:37.351Z,19.34
2018-08-24T16:38:06.477Z,19.29
2018-08-24T16:40:35.445Z,19.27
2018-08-24T16:43:04.367Z,19.20
2018-08-24T16:45:33.643Z,19.12
2018-08-24T16:48:02.822Z,19.26
2018-08-24T16:50:32.116Z,19.07
2018-08-24T16:53:01.222Z,18.97
2018-08-24T16:55:30.143Z,18.99
2018-08-24T16:57:59.284Z,19.19
2018-08-24T17:00:29.604Z,19.09
2018-08-24T17:02:58.750Z,19.24
2018-08-24T17:05:27.760Z,19.21
2018-08-24T17:07:56.892Z,19.07
2018-08-24T17:10:25.963Z,19.11
2018-08-24T17:12:55.236Z,19.27
2018-08-24T17:15:24.968Z,19.18
2018-08-24T17:17:53.925Z,19.12
2018-08-24T17:20:23.089Z,19.05
2018-08-24T17:22:53.000Z,18.81
2018-08-24T17:25:21.901Z,18.77
2018-08-24T17:27:50.832Z,18.98
2018-08-24T17:30:19.956Z,19.04
2018-08-24T17:32:48.901Z,19.07
2018-08-24T17:35:18.031Z,18.81
2018-08-24T17:37:47.100Z,18.62
2018-08-24T17:40:16.300Z,18.72
2018-08-24T17:42:45.449Z,18.73
2018-08-24T17:45:15.116Z,18.54
2018-08-24T17:47:45.116Z,18.49
2018-08-24T17:50:14.448Z,18.52
2018-08-24T17:52:43.523Z,18.44
2018-08-24T17:55:12.634Z,18.41
2018-08-24T17:57:41.876Z,18.39
2018-08-24T18:00:11.817Z,18.33
2018-08-24T18:02:40.716Z,18.37
2018-08-24T18:05:09.881Z,18.36
2018-08-24T18:07:38.860Z,18.36
2018-08-24T18:10:07.823Z,18.41
2018-08-24T18:12:36.779Z,18.27
2018-08-24T18:15:05.868Z,18.41
2018-08-24T18:17:34.667Z,18.48
2018-08-24T18:20:03.723Z,18.42
2018-08-24T18:22:32.624Z,18.52
2018-08-24T18:25:01.854Z,18.42
2018-08-24T18:27:30.855Z,18.32
2018-08-24T18:29:59.807Z,18.30
2018-08-24T18:32:28.683Z,18.14
2018-08-24T18:35:03.053Z,18.25
2018-08-24T18:37:37.627Z,18.30
2018-08-24T18:40:06.646Z,18.28
2018-08-24T18:42:35.754Z,18.24
2018-08-24T18:45:04.764Z,18.26
2018-08-24T18:47:33.675Z,18.33
2018-08-24T18:50:02.595Z,18.38
2018-08-24T18:52:31.560Z,18.26
2018-08-24T18:55:01.724Z,18.34
2018-08-24T18:57:30.935Z,18.34
2018-08-24T18:59:59.937Z,18.50
2018-08-24T19:02:28.879Z,18.51
2018-08-24T19:05:01.441Z,18.25
2018-08-24T19:07:36.404Z,18.22
2018-08-24T19:10:05.632Z,18.26
2018-08-24T19:12:34.644Z,18.17
2018-08-24T19:15:03.646Z,18.25
2018-08-24T19:17:37.735Z,18.33
2018-08-24T19:20:12.039Z,18.31
2018-08-24T19:22:45.149Z,18.24
2018-08-24T19:25:14.243Z,18.28
2018-08-24T19:27:48.483Z,18.24
2018-08-24T19:30:22.742Z,18.20
2018-08-24T19:32:51.780Z,18.19
2018-08-24T19:35:20.848Z,18.15
2018-08-24T19:37:49.966Z,18.09
2018-08-24T19:40:24.170Z,18.11
2018-08-24T19:42:53.103Z,18.16
2018-08-24T19:45:22.051Z,18.19
2018-08-24T19:47:56.332Z,18.08
2018-08-24T19:50:25.332Z,18.05
2018-08-24T19:52:54.305Z,18.14
2018-08-24T19:55:23.277Z,18.07
2018-08-24T19:57:57.388Z,18.09
2018-08-24T20:00:26.321Z,17.96
2018-08-24T20:02:55.256Z,18.07
2018-08-24T20:05:24.296Z,18.05
2018-08-24T20:07:58.493Z,18.16
2018-08-24T20:10:27.476Z,18.04
2018-08-24T20:12:56.480Z,17.97
2018-08-24T20:15:30.946Z,17.87
2018-08-24T20:17:59.896Z,17.93
2018-08-24T20:20:28.949Z,17.84
2018-08-24T20:23:03.330Z,17.87
2018-08-24T20:25:32.362Z,17.93
2018-08-24T20:28:01.315Z,17.84
2018-08-24T20:30:30.263Z,17.65
2018-08-24T20:32:59.550Z,17.65
2018-08-24T20:35:28.483Z,17.78
2018-08-24T20:37:57.509Z,17.80
2018-08-24T20:40:26.441Z,17.83
2018-08-24T20:42:55.386Z,17.72
2018-08-24T20:45:24.343Z,17.76
2018-08-24T20:47:53.238Z,17.79
2018-08-24T20:50:22.184Z,17.66
2018-08-24T20:52:51.100Z,17.73
2018-08-24T20:55:20.148Z,17.58
2018-08-24T20:57:49.117Z,17.22
2018-08-24T21:00:18.014Z,16.81
2018-08-24T21:02:46.946Z,16.65
2018-08-24T21:05:16.194Z,16.32
2018-08-24T21:07:45.262Z,16.15
2018-08-24T21:10:14.259Z,15.84
2018-08-24T21:12:43.235Z,15.73
2018-08-24T21:15:12.166Z,15.91
2018-08-24T21:17:41.097Z,15.85
2018-08-24T21:20:10.002Z,15.96
2018-08-24T21:22:38.972Z,16.00
2018-08-24T21:25:08.303Z,16.06
2018-08-24T21:27:37.238Z,16.02
2018-08-24T21:30:06.277Z,15.83
2018-08-24T21:32:35.327Z,15.88
2018-08-24T21:35:04.426Z,16.03
2018-08-24T21:37:33.424Z,15.86
2018-08-24T21:40:02.323Z,16.01
2018-08-24T21:42:31.247Z,15.90
2018-08-24T21:45:00.265Z,15.93
2018-08-24T21:47:29.149Z,15.59
2018-08-24T21:49:58.075Z,15.84
2018-08-24T21:52:26.995Z,15.90
2018-08-24T21:54:55.999Z,15.93
2018-08-24T21:57:24.963Z,16.03
2018-08-24T21:59:53.872Z,16.00
2018-08-24T22:02:22.777Z,16.03
2018-08-24T22:04:51.751Z,16.17
2018-08-24T22:07:20.727Z,16.06
2018-08-24T22:09:49.680Z,15.81
2018-08-24T22:12:18.635Z,15.69
2018-08-24T22:14:47.542Z,15.79
2018-08-24T22:17:16.472Z,15.61
2018-08-24T22:19:45.373Z,15.91
2018-08-24T22:22:14.268Z,15.58
2018-08-24T22:24:43.361Z,15.78
2018-08-24T22:27:12.292Z,15.43
2018-08-24T22:29:41.225Z,15.43
2018-08-24T22:32:10.144Z,15.57
2018-08-24T22:34:39.130Z,15.86
2018-08-24T22:37:08.056Z,15.89
2018-08-24T22:39:37.010Z,15.65
2018-08-24T22:42:05.944Z,15.79
2018-08-24T22:44:35.216Z,15.93
2018-08-24T22:47:04.648Z,16.06
2018-08-24T22:49:33.895Z,16.11
2018-08-24T22:52:03.122Z,15.89
2018-08-24T22:54:32.234Z,16.09
2018-08-24T22:57:01.424Z,16.24
2018-08-24T22:59:30.566Z,16.31
2018-08-24T23:01:59.712Z,16.04
2018-08-24T23:04:28.828Z,15.76
2018-08-24T23:06:57.925Z,15.69
2018-08-24T23:09:27.086Z,15.83
2018-08-24T23:11:56.217Z,15.63
2018-08-24T23:14:25.437Z,15.51
2018-08-24T23:16:54.500Z,15.01
2018-08-24T23:19:23.697Z,15.26
2018-08-24T23:21:52.843Z,15.15
2018-08-24T23:24:22.014Z,14.97
2018-08-24T23:26:51.102Z,14.95
2018-08-24T23:29:20.270Z,15.25
2018-08-24T23:31:49.394Z,15.35
2018-08-24T23:34:18.469Z,15.39
2018-08-24T23:36:47.608Z,14.80
2018-08-24T23:39:16.754Z,14.87
2018-08-24T23:41:45.845Z,14.77
2018-08-24T23:44:14.984Z,14.86
2018-08-24T23:46:44.074Z,15.02
2018-08-24T23:49:13.176Z,15.09
2018-08-24T23:51:42.348Z,15.30
2018-08-24T23:54:11.388Z,15.46
2018-08-24T23:56:40.552Z,15.49
2018-08-24T23:59:09.652Z,15.70
